createdAt,value
2019-04-16T00:00:34.610Z,20.87
2019-04-16T00:03:04.499Z,13.73
2019-04-16T00:05:42.753Z,12.43
2019-04-16T00:08:31.426Z,17.83
2019-04-16T00:11:05.058Z,16.33
2019-04-16T00:14:05.566Z,13.73
2019-04-16T00:16:35.214Z,11.33
2019-04-16T00:19:06.522Z,11.40
2019-04-16T00:21:53.748Z,10.47
2019-04-16T00:24:29.502Z,14.07
2019-04-16T00:27:00.043Z,14.33
2019-04-16T00:29:32.677Z,15.47
2019-04-16T00:32:11.955Z,11.37
2019-04-16T00:34:44.500Z,11.73
2019-04-16T00:37:12.747Z,10.63
2019-04-16T00:39:42.313Z,14.83
2019-04-16T00:42:11.896Z,14.53
2019-04-16T00:44:41.495Z,11.63
2019-04-16T00:47:11.191Z,11.30
2019-04-16T00:49:40.714Z,12.03
2019-04-16T00:52:10.422Z,10.67
2019-04-16T00:54:42.399Z,10.13
2019-04-16T00:57:12.130Z,11.57
2019-04-16T00:59:41.990Z,13.80
2019-04-16T01:02:11.550Z,15.87
2019-04-16T01:04:41.075Z,15.30
2019-04-16T01:07:10.714Z,13.47
2019-04-16T01:09:40.296Z,16.97
2019-04-16T01:12:09.888Z,14.43
2019-04-16T01:14:39.409Z,12.97
2019-04-16T01:17:09.006Z,12.03
2019-04-16T01:19:41.081Z,12.83
2019-04-16T01:22:09.954Z,12.37
2019-04-16T01:24:39.495Z,15.00
2019-04-16T01:27:09.310Z,14.57
2019-04-16T01:29:38.962Z,12.13
2019-04-16T01:32:30.602Z,13.17
2019-04-16T01:35:22.207Z,16.93
2019-04-16T01:38:09.470Z,14.57
2019-04-16T01:41:00.450Z,11.93
2019-04-16T01:43:30.056Z,13.97
2019-04-16T01:46:01.269Z,19.60
2019-04-16T01:48:31.034Z,13.13
2019-04-16T01:51:00.572Z,13.33
2019-04-16T01:53:30.138Z,13.40
2019-04-16T01:55:59.659Z,12.57
2019-04-16T01:58:33.569Z,12.07
2019-04-16T02:01:00.673Z,13.23
2019-04-16T02:03:30.349Z,16.13
2019-04-16T02:05:59.885Z,15.27
2019-04-16T02:08:31.155Z,15.67
2019-04-16T02:11:00.705Z,15.40
2019-04-16T02:13:30.294Z,12.80
2019-04-16T02:15:59.810Z,12.17
2019-04-16T02:18:30.293Z,13.47
2019-04-16T02:21:00.009Z,14.17
2019-04-16T02:23:29.597Z,13.20
2019-04-16T02:25:59.145Z,12.60
2019-04-16T02:28:29.054Z,12.50
2019-04-16T02:30:58.634Z,10.90
2019-04-16T02:33:28.256Z,15.13
2019-04-16T02:35:57.783Z,12.13
2019-04-16T02:38:27.360Z,13.43
2019-04-16T02:40:56.907Z,13.13
2019-04-16T02:43:26.518Z,16.10
2019-04-16T02:45:58.256Z,13.50
2019-04-16T02:48:27.410Z,12.67
2019-04-16T02:51:05.324Z,11.93
2019-04-16T02:53:54.504Z,15.03
2019-04-16T02:56:41.824Z,12.37
2019-04-16T02:59:14.729Z,12.60
2019-04-16T03:01:57.803Z,14.90
2019-04-16T03:04:31.466Z,15.40
2019-04-16T03:07:03.301Z,16.90
2019-04-16T03:09:32.283Z,17.03
2019-04-16T03:12:01.878Z,15.13
2019-04-16T03:14:31.475Z,15.43
2019-04-16T03:17:14.727Z,15.37
2019-04-16T03:19:45.031Z,17.80
2019-04-16T03:22:14.673Z,15.07
2019-04-16T03:24:44.199Z,14.50
2019-04-16T03:27:13.779Z,17.23
2019-04-16T03:29:43.307Z,22.30
2019-04-16T03:32:15.007Z,17.60
2019-04-16T03:34:44.192Z,14.40
2019-04-16T03:37:13.836Z,15.90
2019-04-16T03:39:44.671Z,15.03
2019-04-16T03:42:14.541Z,15.17
2019-04-16T03:44:44.979Z,14.07
2019-04-16T03:47:15.783Z,15.20
2019-04-16T03:49:45.851Z,12.93
2019-04-16T03:52:15.427Z,17.60
2019-04-16T03:54:44.977Z,17.23
2019-04-16T03:57:14.550Z,17.27
2019-04-16T03:59:44.119Z,14.10
2019-04-16T04:02:15.295Z,21.33
2019-04-16T04:04:44.962Z,15.77
2019-04-16T04:07:14.531Z,16.27
2019-04-16T04:09:44.057Z,15.83
2019-04-16T04:12:14.310Z,16.63
2019-04-16T04:14:44.096Z,18.90
2019-04-16T04:17:13.666Z,28.03
2019-04-16T04:19:43.550Z,18.30
2019-04-16T04:22:14.542Z,13.73
2019-04-16T04:24:44.080Z,15.77
2019-04-16T04:27:18.282Z,16.80
2019-04-16T04:29:46.449Z,15.73
2019-04-16T04:32:16.222Z,20.53
2019-04-16T04:34:48.818Z,22.10
2019-04-16T04:37:17.241Z,25.43
2019-04-16T04:39:46.758Z,16.93
2019-04-16T04:42:18.971Z,18.03
2019-04-16T04:44:47.611Z,19.57
2019-04-16T04:47:19.401Z,25.57
2019-04-16T04:49:48.480Z,22.20
2019-04-16T04:52:18.011Z,20.13
2019-04-16T04:54:47.839Z,22.83
2019-04-16T04:57:17.364Z,19.93
2019-04-16T04:59:46.959Z,25.90
2019-04-16T05:02:16.516Z,24.13
2019-04-16T05:05:08.283Z,21.13
2019-04-16T05:07:37.813Z,20.60
2019-04-16T05:10:08.461Z,22.77
2019-04-16T05:12:38.010Z,19.37
2019-04-16T05:15:07.603Z,18.40
2019-04-16T05:17:38.465Z,18.73
2019-04-16T05:20:08.538Z,16.20
2019-04-16T05:22:38.055Z,16.87
2019-04-16T05:25:07.634Z,24.27
2019-04-16T05:27:40.107Z,19.97
2019-04-16T05:30:08.622Z,19.47
2019-04-16T05:32:38.171Z,22.97
2019-04-16T05:35:10.221Z,24.47
2019-04-16T05:37:39.226Z,21.00
2019-04-16T05:40:09.336Z,29.50
2019-04-16T05:42:38.875Z,21.23
2019-04-16T05:45:08.464Z,19.47
2019-04-16T05:47:38.363Z,29.53
2019-04-16T05:50:08.102Z,22.40
2019-04-16T05:52:37.703Z,25.70
2019-04-16T05:55:16.733Z,28.43
2019-04-16T05:57:45.608Z,21.27
2019-04-16T06:00:22.135Z,20.77
2019-04-16T06:02:51.996Z,21.47
2019-04-16T06:05:24.264Z,31.83
2019-04-16T06:07:54.650Z,29.90
2019-04-16T06:10:24.162Z,30.57
2019-04-16T06:13:05.887Z,35.40
2019-04-16T06:16:00.660Z,25.67
2019-04-16T06:18:47.843Z,22.73
2019-04-16T06:21:40.075Z,24.60
2019-04-16T06:24:28.798Z,23.93
2019-04-16T06:27:07.276Z,23.50
2019-04-16T06:30:01.314Z,22.77
2019-04-16T06:32:36.375Z,18.10
2019-04-16T06:35:42.575Z,19.60
2019-04-16T06:38:07.196Z,21.43
2019-04-16T06:41:03.010Z,19.87
2019-04-16T06:43:34.678Z,23.07
2019-04-16T06:46:26.379Z,23.97
2019-04-16T06:49:18.899Z,23.17
2019-04-16T06:52:16.581Z,21.63
2019-04-16T06:55:12.368Z,20.87
2019-04-16T06:58:04.639Z,20.20
2019-04-16T07:00:49.360Z,22.10
2019-04-16T07:03:33.404Z,22.13
2019-04-16T07:06:20.776Z,23.33
2019-04-16T07:09:09.492Z,17.53
2019-04-16T07:11:39.799Z,23.60
2019-04-16T07:14:11.510Z,17.80
2019-04-16T07:16:40.898Z,21.40
2019-04-16T07:19:11.532Z,32.07
2019-04-16T07:21:41.295Z,22.37
2019-04-16T07:24:11.123Z,25.00
2019-04-16T07:26:46.657Z,21.87
2019-04-16T07:29:23.619Z,20.90
2019-04-16T07:32:30.625Z,21.53
2019-04-16T07:35:19.335Z,20.43
2019-04-16T07:38:06.926Z,23.17
2019-04-16T07:40:46.038Z,26.77
2019-04-16T07:43:31.936Z,20.83
2019-04-16T07:46:17.487Z,21.50
2019-04-16T07:48:55.634Z,28.83
2019-04-16T07:51:50.525Z,23.70
2019-04-16T07:54:39.200Z,22.83
2019-04-16T07:57:08.778Z,19.87
2019-04-16T07:59:38.321Z,24.87
2019-04-16T08:02:08.011Z,18.23
2019-04-16T08:04:37.627Z,22.73
2019-04-16T08:07:07.375Z,21.67
2019-04-16T08:09:36.983Z,17.93
2019-04-16T08:12:10.738Z,18.87
2019-04-16T08:14:37.941Z,19.53
2019-04-16T08:17:07.563Z,27.27
2019-04-16T08:19:37.666Z,20.13
2019-04-16T08:22:07.378Z,22.90
2019-04-16T08:24:40.155Z,19.77
2019-04-16T08:27:10.845Z,23.20
2019-04-16T08:29:40.550Z,19.10
2019-04-16T08:32:12.908Z,22.70
2019-04-16T08:34:41.506Z,20.07
2019-04-16T08:37:11.120Z,20.70
2019-04-16T08:39:40.759Z,24.47
2019-04-16T08:42:10.287Z,22.90
2019-04-16T08:44:39.910Z,21.77
2019-04-16T08:47:11.943Z,23.57
2019-04-16T08:49:41.020Z,21.37
2019-04-16T08:52:11.144Z,21.47
2019-04-16T08:54:41.032Z,18.10
2019-04-16T08:57:10.566Z,18.23
2019-04-16T08:59:42.593Z,20.83
2019-04-16T09:02:11.382Z,19.53
2019-04-16T09:04:41.072Z,20.50
2019-04-16T09:07:29.738Z,18.00
2019-04-16T09:09:59.702Z,18.67
2019-04-16T09:12:29.381Z,22.37
2019-04-16T09:14:59.079Z,17.83
2019-04-16T09:17:32.115Z,16.50
2019-04-16T09:20:16.367Z,21.63
2019-04-16T09:22:49.086Z,21.50
2019-04-16T09:25:51.395Z,19.30
2019-04-16T09:28:38.781Z,19.23
2019-04-16T09:31:42.793Z,19.50
2019-04-16T09:34:30.897Z,21.13
2019-04-16T09:37:37.716Z,20.20
2019-04-16T09:40:32.635Z,20.20
2019-04-16T09:43:15.696Z,19.63
2019-04-16T09:45:37.209Z,21.70
2019-04-16T09:48:05.740Z,19.43
2019-04-16T09:50:35.470Z,22.80
2019-04-16T09:53:05.039Z,20.43
2019-04-16T09:55:34.727Z,23.03
2019-04-16T09:58:10.899Z,22.37
2019-04-16T10:00:42.151Z,21.30
2019-04-16T10:03:33.085Z,21.37
2019-04-16T10:06:05.274Z,20.63
2019-04-16T10:08:34.011Z,21.83
2019-04-16T10:11:06.029Z,22.17
2019-04-16T10:13:36.322Z,19.23
2019-04-16T10:16:06.591Z,21.30
2019-04-16T10:18:36.181Z,24.80
2019-04-16T10:21:05.841Z,20.63
2019-04-16T10:23:41.041Z,22.50
2019-04-16T10:26:10.731Z,22.97
2019-04-16T10:28:40.408Z,20.73
2019-04-16T10:31:10.940Z,27.73
2019-04-16T10:33:40.622Z,19.77
2019-04-16T10:36:10.318Z,25.53
2019-04-16T10:39:04.957Z,22.70
2019-04-16T10:41:38.060Z,31.97
2019-04-16T10:44:19.606Z,46.37
2019-04-16T10:47:19.945Z,38.30
2019-04-16T10:50:14.990Z,39.60
2019-04-16T10:53:02.638Z,75.67
2019-04-16T10:55:49.424Z,95.07
2019-04-16T10:58:44.123Z,32.33
2019-04-16T11:01:38.878Z,24.97
2019-04-16T11:04:19.032Z,30.50
2019-04-16T11:06:49.662Z,20.77
2019-04-16T11:09:19.277Z,24.13
2019-04-16T11:11:48.972Z,37.37
2019-04-16T11:14:18.563Z,56.25
2019-04-16T11:16:50.388Z,25.07
2019-04-16T11:19:20.825Z,20.43
2019-04-16T11:21:50.576Z,23.23
2019-04-16T11:24:20.721Z,25.70
2019-04-16T11:26:50.764Z,28.67
2019-04-16T11:29:20.804Z,57.83
2019-04-16T11:31:50.549Z,146.47
2019-04-16T11:34:20.319Z,33.77
2019-04-16T11:36:50.047Z,35.70
2019-04-16T11:39:19.601Z,23.00
2019-04-16T11:41:49.406Z,33.07
2019-04-16T11:44:19.323Z,18.03
2019-04-16T11:46:49.266Z,23.80
2019-04-16T11:49:20.494Z,14.07
2019-04-16T11:51:50.113Z,14.33
2019-04-16T11:54:19.743Z,16.10
2019-04-16T11:56:49.737Z,18.30
2019-04-16T11:59:19.616Z,18.13
2019-04-16T12:01:54.463Z,18.90
2019-04-16T12:04:43.131Z,17.63
2019-04-16T12:07:34.927Z,19.32
2019-04-16T12:10:22.820Z,17.23
2019-04-16T12:13:10.053Z,16.53
2019-04-16T12:15:45.313Z,25.50
2019-04-16T12:18:21.916Z,26.90
2019-04-16T12:21:01.731Z,22.70
2019-04-16T12:23:49.425Z,38.17
2019-04-16T12:26:45.168Z,24.67
2019-04-16T12:29:23.234Z,23.33
2019-04-16T12:32:04.138Z,20.20
2019-04-16T12:34:51.357Z,195.60
2019-04-16T12:37:38.687Z,294.70
2019-04-16T12:40:18.624Z,178.93
2019-04-16T12:42:54.906Z,33.37
2019-04-16T12:45:33.337Z,22.30
2019-04-16T12:48:31.270Z,17.63
2019-04-16T12:51:25.524Z,18.90
2019-04-16T12:54:18.142Z,16.23
2019-04-16T12:57:07.034Z,13.77
2019-04-16T12:59:59.871Z,15.17
2019-04-16T13:02:44.852Z,17.27
2019-04-16T13:05:23.319Z,14.23
2019-04-16T13:08:11.999Z,17.87
2019-04-16T13:10:59.837Z,18.33
2019-04-16T13:13:47.264Z,15.80
2019-04-16T13:16:20.490Z,16.13
2019-04-16T13:19:18.349Z,20.03
2019-04-16T13:21:52.602Z,16.67
2019-04-16T13:24:33.216Z,14.87
2019-04-16T13:27:30.762Z,17.43
2019-04-16T13:30:01.884Z,16.73
2019-04-16T13:32:31.688Z,16.67
2019-04-16T13:35:01.342Z,19.10
2019-04-16T13:37:36.899Z,15.40
2019-04-16T13:40:08.228Z,17.27
2019-04-16T13:42:37.803Z,14.80
2019-04-16T13:45:36.323Z,17.43
2019-04-16T13:48:16.633Z,16.43
2019-04-16T13:50:49.085Z,17.17
2019-04-16T13:53:53.012Z,16.87
2019-04-16T13:56:50.605Z,14.90
2019-04-16T13:59:33.354Z,14.67
2019-04-16T14:02:20.703Z,19.50
2019-04-16T14:04:50.235Z,15.67
2019-04-16T14:07:20.099Z,18.70
2019-04-16T14:09:49.643Z,16.00
2019-04-16T14:12:24.517Z,40.10
2019-04-16T14:14:50.933Z,27.23
2019-04-16T14:17:24.122Z,50.33
2019-04-16T14:19:53.700Z,43.17
2019-04-16T14:22:23.447Z,27.87
2019-04-16T14:24:53.019Z,22.27
2019-04-16T14:27:22.754Z,47.63
2019-04-16T14:29:52.423Z,87.73
2019-04-16T14:32:22.071Z,38.10
2019-04-16T14:34:56.826Z,25.47
2019-04-16T14:37:26.509Z,21.00
2019-04-16T14:40:10.544Z,14.03
2019-04-16T14:42:40.265Z,17.63
2019-04-16T14:45:17.967Z,18.07
2019-04-16T14:47:47.591Z,14.80
2019-04-16T14:50:19.899Z,14.73
2019-04-16T14:52:48.518Z,13.03
2019-04-16T14:55:35.739Z,13.20
2019-04-16T14:58:22.992Z,14.20
2019-04-16T15:01:10.175Z,13.60
2019-04-16T15:03:57.539Z,12.83
2019-04-16T15:07:04.383Z,11.33
2019-04-16T15:09:53.245Z,14.57
2019-04-16T15:12:27.691Z,12.03
2019-04-16T15:15:01.159Z,9.63
2019-04-16T15:17:41.511Z,11.23
2019-04-16T15:20:32.832Z,14.43
2019-04-16T15:23:13.402Z,14.07
2019-04-16T15:26:03.168Z,11.65
2019-04-16T15:28:43.423Z,10.90
2019-04-16T15:31:20.714Z,13.57
2019-04-16T15:33:54.754Z,9.80
2019-04-16T15:36:44.408Z,8.90
2019-04-16T15:39:17.251Z,12.13
2019-04-16T15:42:04.444Z,12.00
2019-04-16T15:44:56.186Z,12.77
2019-04-16T15:47:42.864Z,10.30
2019-04-16T15:50:35.183Z,11.70
2019-04-16T15:53:27.563Z,46.33
2019-04-16T15:56:10.947Z,49.23
2019-04-16T15:59:03.040Z,43.70
2019-04-16T16:01:54.944Z,80.50
2019-04-16T16:04:42.367Z,63.60
2019-04-16T16:07:14.815Z,46.03
2019-04-16T16:10:03.571Z,60.45
2019-04-16T16:12:33.755Z,16.40
2019-04-16T16:15:07.595Z,11.60
2019-04-16T16:17:35.039Z,16.33
2019-04-16T16:20:09.649Z,12.90
2019-04-16T16:22:36.410Z,16.30
2019-04-16T16:25:06.610Z,16.53
2019-04-16T16:27:41.774Z,13.57
2019-04-16T16:30:07.653Z,16.47
2019-04-16T16:32:37.307Z,18.10
2019-04-16T16:35:07.206Z,13.73
2019-04-16T16:37:37.560Z,12.60
2019-04-16T16:40:07.353Z,15.23
2019-04-16T16:42:37.003Z,14.37
2019-04-16T16:45:07.249Z,22.37
2019-04-16T16:47:40.343Z,17.70
2019-04-16T16:50:12.462Z,15.60
2019-04-16T16:53:07.124Z,15.77
2019-04-16T16:55:59.284Z,12.53
2019-04-16T16:58:51.379Z,14.77
2019-04-16T17:01:38.704Z,11.37
2019-04-16T17:04:17.128Z,13.33
2019-04-16T17:06:46.748Z,13.37
2019-04-16T17:09:33.047Z,19.63
2019-04-16T17:12:03.414Z,28.27
2019-04-16T17:14:36.417Z,28.77
2019-04-16T17:17:13.919Z,15.53
2019-04-16T17:19:36.613Z,25.27
2019-04-16T17:22:06.203Z,27.83
2019-04-16T17:24:35.876Z,25.00
2019-04-16T17:27:05.848Z,30.60
2019-04-16T17:29:35.397Z,32.57
2019-04-16T17:32:05.079Z,22.80
2019-04-16T17:34:39.808Z,21.03
2019-04-16T17:37:08.429Z,18.90
2019-04-16T17:39:52.334Z,25.17
2019-04-16T17:42:27.195Z,17.97
2019-04-16T17:45:14.492Z,8.93
2019-04-16T17:48:01.656Z,7.77
2019-04-16T17:50:40.506Z,9.10
2019-04-16T17:53:35.288Z,8.57
2019-04-16T17:56:22.971Z,6.13
2019-04-16T17:58:55.853Z,10.23
2019-04-16T18:01:44.574Z,8.33
2019-04-16T18:04:44.613Z,7.00
2019-04-16T18:07:24.264Z,5.43
2019-04-16T18:10:15.791Z,4.53
2019-04-16T18:12:56.604Z,3.97
2019-04-16T18:15:49.011Z,5.30
2019-04-16T18:18:37.887Z,7.67
2019-04-16T18:21:16.480Z,8.23
2019-04-16T18:23:52.465Z,8.53
2019-04-16T18:26:41.246Z,11.30
2019-04-16T18:29:35.738Z,7.20
2019-04-16T18:32:34.685Z,5.03
2019-04-16T18:35:26.708Z,9.77
2019-04-16T18:38:15.543Z,14.40
2019-04-16T18:41:04.165Z,12.03
2019-04-16T18:43:55.583Z,6.03
2019-04-16T18:46:44.562Z,6.20
2019-04-16T18:49:18.103Z,9.43
2019-04-16T18:51:47.877Z,6.67
2019-04-16T18:54:17.554Z,8.20
2019-04-16T18:56:47.319Z,6.83
2019-04-16T18:59:16.992Z,12.17
2019-04-16T19:01:48.568Z,12.10
2019-04-16T19:04:18.374Z,12.07
2019-04-16T19:06:48.118Z,8.30
2019-04-16T19:09:20.843Z,6.47
2019-04-16T19:11:49.317Z,7.60
2019-04-16T19:14:19.140Z,11.23
2019-04-16T19:16:49.155Z,7.53
2019-04-16T19:19:21.915Z,6.80
2019-04-16T19:21:52.185Z,6.80
2019-04-16T19:24:22.231Z,6.83
2019-04-16T19:26:52.593Z,5.17
2019-04-16T19:29:22.256Z,4.90
2019-04-16T19:31:54.978Z,7.70
2019-04-16T19:34:23.362Z,6.07
2019-04-16T19:36:56.257Z,13.23
2019-04-16T19:39:24.382Z,9.10
2019-04-16T19:41:57.170Z,6.77
2019-04-16T19:44:25.238Z,5.90
2019-04-16T19:46:54.997Z,6.93
2019-04-16T19:49:24.721Z,6.30
2019-04-16T19:51:54.395Z,4.97
2019-04-16T19:54:23.994Z,4.87
2019-04-16T19:56:53.597Z,4.67
2019-04-16T19:59:23.477Z,4.97
2019-04-16T20:01:55.786Z,5.83
2019-04-16T20:04:24.559Z,5.37
2019-04-16T20:06:59.728Z,6.80
2019-04-16T20:09:25.517Z,13.90
2019-04-16T20:11:56.388Z,6.70
2019-04-16T20:14:26.384Z,9.03
2019-04-16T20:16:55.939Z,7.37
2019-04-16T20:19:25.686Z,8.03
2019-04-16T20:21:55.367Z,7.17
2019-04-16T20:24:25.144Z,9.77
2019-04-16T20:26:55.072Z,8.70
2019-04-16T20:29:24.889Z,8.70
2019-04-16T20:31:54.473Z,9.77
2019-04-16T20:34:24.242Z,10.70
2019-04-16T20:36:55.790Z,8.83
2019-04-16T20:39:25.359Z,10.53
2019-04-16T20:41:58.743Z,9.03
2019-04-16T20:44:26.712Z,9.60
2019-04-16T20:46:58.316Z,9.03
2019-04-16T20:49:27.809Z,8.60
2019-04-16T20:52:00.652Z,9.70
2019-04-16T20:54:28.993Z,8.80
2019-04-16T20:56:58.750Z,9.23
2019-04-16T20:59:28.559Z,11.07
2019-04-16T21:01:58.359Z,10.70
2019-04-16T21:04:28.293Z,8.77
2019-04-16T21:06:58.194Z,11.33
2019-04-16T21:09:30.129Z,9.70
2019-04-16T21:11:59.250Z,13.87
2019-04-16T21:14:29.078Z,12.60
2019-04-16T21:16:58.876Z,11.63
2019-04-16T21:19:47.939Z,11.67
2019-04-16T21:22:18.486Z,9.30
2019-04-16T21:24:48.171Z,11.30
2019-04-16T21:27:17.837Z,10.30
2019-04-16T21:29:47.759Z,10.10
2019-04-16T21:32:40.485Z,8.80
2019-04-16T21:35:18.215Z,10.97
2019-04-16T21:38:04.938Z,8.10
2019-04-16T21:40:34.639Z,6.73
2019-04-16T21:43:07.700Z,8.33
2019-04-16T21:45:35.683Z,8.33
2019-04-16T21:48:05.631Z,7.77
2019-04-16T21:50:35.344Z,7.40
2019-04-16T21:53:05.050Z,9.17
2019-04-16T21:55:35.445Z,7.03
2019-04-16T21:58:05.827Z,8.63
2019-04-16T22:01:05.005Z,8.07
2019-04-16T22:03:35.098Z,5.80
2019-04-16T22:06:04.859Z,8.37
2019-04-16T22:08:34.497Z,7.13
2019-04-16T22:11:04.959Z,7.40
2019-04-16T22:13:34.694Z,8.60
2019-04-16T22:16:04.793Z,6.83
2019-04-16T22:18:34.584Z,4.77
2019-04-16T22:21:09.552Z,7.57
2019-04-16T22:23:37.565Z,5.70
2019-04-16T22:26:10.043Z,7.80
2019-04-16T22:28:38.654Z,8.53
2019-04-16T22:31:08.470Z,6.27
2019-04-16T22:33:38.118Z,5.27
2019-04-16T22:36:07.842Z,7.17
2019-04-16T22:38:37.883Z,7.13
2019-04-16T22:41:27.552Z,16.33
2019-04-16T22:44:34.798Z,12.43
2019-04-16T22:47:09.346Z,11.30
2019-04-16T22:49:39.131Z,17.23
2019-04-16T22:52:12.226Z,13.17
2019-04-16T22:54:40.394Z,14.87
2019-04-16T22:57:12.580Z,23.00
2019-04-16T22:59:42.582Z,12.57
2019-04-16T23:02:24.199Z,16.37
2019-04-16T23:04:54.879Z,16.77
2019-04-16T23:07:25.460Z,13.50
2019-04-16T23:09:55.342Z,25.77
2019-04-16T23:12:28.047Z,43.03
2019-04-16T23:14:56.744Z,35.13
2019-04-16T23:17:26.900Z,25.37
2019-04-16T23:19:57.146Z,14.17
2019-04-16T23:22:26.838Z,10.77
2019-04-16T23:24:56.526Z,13.47
2019-04-16T23:27:26.310Z,7.60
2019-04-16T23:29:56.086Z,6.40
2019-04-16T23:32:28.686Z,9.17
2019-04-16T23:34:57.392Z,6.20
2019-04-16T23:37:27.172Z,8.23
2019-04-16T23:39:56.840Z,12.00
2019-04-16T23:42:26.551Z,10.93
2019-04-16T23:45:04.148Z,9.90
2019-04-16T23:47:56.084Z,5.63
2019-04-16T23:50:44.709Z,6.50
2019-04-16T23:53:12.247Z,5.23
2019-04-16T23:55:51.824Z,4.80
2019-04-16T23:58:28.561Z,5.17
